Time;durP1;ratioP1;P1;durP2;ratioP2;P2;SDS_P1;SDS_P2;PMS_P1;PMS_P2;Temp;Humidity;BMP_temperature;BMP_pressure;BME280_temperature;BME280_humidity;BME280_pressure;Samples;Min_cycle;Max_cycle;Signal;HPM_P1;HPM_P2
2023/01/20 00:01:13;;;;;;;111.50;60.00;;;;;;;-128.00;-1.00;-1.00;105658;1252;1044486;-72
2023/01/20 00:03:41;;;;;;;111.80;59.00;;;;;;;-128.00;-1.00;-1.00;105723;1252;1004825;-72
2023/01/20 00:06:08;;;;;;;115.20;59.90;;;;;;;-128.00;-1.00;-1.00;105650;1251;1004235;-72
2023/01/20 00:08:35;;;;;;;114.70;62.50;;;;;;;-128.00;-1.00;-1.00;105594;1252;1004731;-72
2023/01/20 00:11:06;;;;;;;117.20;61.00;;;;;;;-128.00;-1.00;-1.00;105706;1252;1006159;-72
2023/01/20 00:13:34;;;;;;;110.20;61.10;;;;;;;-128.00;-1.00;-1.00;105672;1251;1045658;-72
2023/01/20 00:16:06;;;;;;;114.30;60.20;;;;;;;-128.00;-1.00;-1.00;105580;1252;1003428;-72
2023/01/20 00:18:33;;;;;;;108.60;60.20;;;;;;;-128.00;-1.00;-1.00;105706;1252;1061297;-72
2023/01/20 00:21:06;;;;;;;113.10;59.10;;;;;;;-128.00;-1.00;-1.00;105737;1252;1004512;-72
2023/01/20 00:23:32;;;;;;;114.30;59.40;;;;;;;-128.00;-1.00;-1.00;105702;1252;1059633;-71
2023/01/20 00:26:06;;;;;;;115.40;63.00;;;;;;;-128.00;-1.00;-1.00;105743;1252;1003735;-71
2023/01/20 00:28:34;;;;;;;104.70;60.40;;;;;;;-128.00;-1.00;-1.00;105728;1252;1047759;-72
2023/01/20 00:31:19;;;;;;;103.30;58.40;;;;;;;-128.00;-1.00;-1.00;105729;1252;1003835;-71
2023/01/20 00:33:48;;;;;;;106.40;55.70;;;;;;;-128.00;-1.00;-1.00;105746;1253;1054594;-71
2023/01/20 00:36:16;;;;;;;107.00;58.90;;;;;;;-128.00;-1.00;-1.00;105688;1252;1060270;-72
2023/01/20 00:38:43;;;;;;;112.80;61.80;;;;;;;-128.00;-1.00;-1.00;105640;1252;1046316;-72
2023/01/20 00:41:10;;;;;;;118.30;63.30;;;;;;;-128.00;-1.00;-1.00;105709;1251;1004199;-73
2023/01/20 00:43:38;;;;;;;111.20;62.20;;;;;;;-128.00;-1.00;-1.00;105746;1252;1003954;-72
2023/01/20 00:46:05;;;;;;;105.30;58.40;;;;;;;-128.00;-1.00;-1.00;105437;1251;1004801;-73
2023/01/20 00:48:32;;;;;;;104.70;57.20;;;;;;;-128.00;-1.00;-1.00;105711;1251;1003763;-72
2023/01/20 00:51:00;;;;;;;105.50;60.40;;;;;;;-128.00;-1.00;-1.00;105690;1252;1004537;-72
2023/01/20 00:53:26;;;;;;;109.50;58.10;;;;;;;-128.00;-1.00;-1.00;105664;1253;1004521;-72
2023/01/20 00:55:54;;;;;;;113.30;60.10;;;;;;;-128.00;-1.00;-1.00;105706;1252;1004678;-72
2023/01/20 00:58:21;;;;;;;114.20;63.80;;;;;;;-128.00;-1.00;-1.00;105709;1252;1003721;-72
2023/01/20 01:00:50;;;;;;;119.90;63.40;;;;;;;-128.00;-1.00;-1.00;105668;1252;1004833;-72
2023/01/20 01:03:18;;;;;;;111.00;61.50;;;;;;;-128.00;-1.00;-1.00;105598;1252;1046261;-73
2023/01/20 01:05:45;;;;;;;107.90;62.00;;;;;;;-128.00;-1.00;-1.00;105464;1252;1004102;-72
2023/01/20 01:08:12;;;;;;;99.60;58.60;;;;;;;-128.00;-1.00;-1.00;105688;1252;1004443;-72
2023/01/20 01:10:39;;;;;;;99.80;59.80;;;;;;;-128.00;-1.00;-1.00;105675;1252;1004587;-71
2023/01/20 01:13:06;;;;;;;95.60;56.50;;;;;;;-128.00;-1.00;-1.00;105659;1252;1004110;-72
2023/01/20 01:15:33;;;;;;;102.70;60.20;;;;;;;-128.00;-1.00;-1.00;105697;1251;1004088;-72
2023/01/20 01:18:00;;;;;;;103.30;59.20;;;;;;;-128.00;-1.00;-1.00;105721;1251;1004650;-72
2023/01/20 01:20:28;;;;;;;108.20;60.50;;;;;;;-128.00;-1.00;-1.00;105721;1252;1004118;-71
2023/01/20 01:22:55;;;;;;;90.10;57.00;;;;;;;-128.00;-1.00;-1.00;105707;1251;1004012;-72
2023/01/20 01:25:21;;;;;;;97.70;60.30;;;;;;;-128.00;-1.00;-1.00;105676;1252;1006196;-72
2023/01/20 01:27:48;;;;;;;97.50;58.20;;;;;;;-128.00;-1.00;-1.00;105696;1252;1003484;-72
2023/01/20 01:30:15;;;;;;;92.30;57.60;;;;;;;-128.00;-1.00;-1.00;105727;1252;1004538;-73
2023/01/20 01:32:42;;;;;;;94.30;58.10;;;;;;;-128.00;-1.00;-1.00;105561;1252;1003923;-72
2023/01/20 01:35:08;;;;;;;91.20;54.20;;;;;;;-128.00;-1.00;-1.00;105615;1253;1003564;-72
2023/01/20 01:37:35;;;;;;;98.30;55.90;;;;;;;-128.00;-1.00;-1.00;104131;1251;1004347;-73
2023/01/20 01:40:02;;;;;;;90.00;54.10;;;;;;;-128.00;-1.00;-1.00;105720;1251;1004688;-73
2023/01/20 01:42:29;;;;;;;92.40;55.50;;;;;;;-128.00;-1.00;-1.00;105487;1252;1004228;-73
2023/01/20 01:45:10;;;;;;;97.60;56.50;;;;;;;-128.00;-1.00;-1.00;105725;1252;1004903;-73
2023/01/20 01:47:41;;;;;;;91.20;54.00;;;;;;;-128.00;-1.00;-1.00;105711;1252;1055333;-74
2023/01/20 01:50:13;;;;;;;96.30;58.80;;;;;;;-128.00;-1.00;-1.00;105686;1251;1059380;-75
2023/01/20 01:52:43;;;;;;;97.10;57.00;;;;;;;-128.00;-1.00;-1.00;105704;1252;1045018;-74
2023/01/20 01:55:12;;;;;;;95.70;56.00;;;;;;;-128.00;-1.00;-1.00;105748;1252;1048199;-74
2023/01/20 01:57:39;;;;;;;102.10;58.30;;;;;;;-128.00;-1.00;-1.00;105712;1252;1003589;-74
2023/01/20 02:00:06;;;;;;;88.80;53.30;;;;;;;-128.00;-1.00;-1.00;105758;1252;1003401;-74
2023/01/20 02:02:34;;;;;;;90.30;53.10;;;;;;;-128.00;-1.00;-1.00;105366;1252;1003354;-73
2023/01/20 02:05:02;;;;;;;89.00;53.30;;;;;;;-128.00;-1.00;-1.00;105716;1252;1044551;-73
2023/01/20 02:07:32;;;;;;;93.50;54.30;;;;;;;-128.00;-1.00;-1.00;105715;1252;1004371;-74
2023/01/20 02:09:59;;;;;;;;;;;;;;;-128.00;-1.00;-1.00;105730;1252;1060538;-74
2023/01/20 02:12:27;;;;;;;96.50;55.30;;;;;;;-128.00;-1.00;-1.00;105712;1252;1004159;-74
2023/01/20 02:15:00;;;;;;;99.10;57.30;;;;;;;-128.00;-1.00;-1.00;105657;1252;1004754;-74
2023/01/20 02:18:04;;;;;;;92.10;54.50;;;;;;;-128.00;-1.00;-1.00;105672;1252;1044460;-74
2023/01/20 02:21:14;;;;;;;101.50;57.60;;;;;;;-128.00;-1.00;-1.00;105650;1252;1047124;-74
2023/01/20 02:24:03;;;;;;;90.70;56.30;;;;;;;-128.00;-1.00;-1.00;105067;1260;1061270;-73
2023/01/20 02:26:29;;;;;;;99.80;57.00;;;;;;;-128.00;-1.00;-1.00;105106;1260;1055542;-74
2023/01/20 02:29:02;;;;;;;95.20;54.80;;;;;;;-128.00;-1.00;-1.00;105067;1260;1005281;-74
2023/01/20 02:32:03;;;;;;;94.40;56.40;;;;;;;-128.00;-1.00;-1.00;105061;1260;1044912;-75
2023/01/20 02:35:19;;;;;;;91.70;55.30;;;;;;;-128.00;-1.00;-1.00;105089;1260;1047502;-74
2023/01/20 02:37:52;;;;;;;92.80;57.00;;;;;;;-128.00;-1.00;-1.00;104225;1272;1062018;-74
2023/01/20 02:40:39;;;;;;;98.30;56.70;;;;;;;-128.00;-1.00;-1.00;104067;1272;1055268;-74
2023/01/20 02:43:18;;;;;;;116.10;63.50;;;;;;;-128.00;-1.00;-1.00;103456;1273;1059864;-74
2023/01/20 02:45:51;;;;;;;119.60;64.60;;;;;;;-128.00;-1.00;-1.00;104238;1272;1045418;-73
2023/01/20 02:48:30;;;;;;;111.10;62.30;;;;;;;-128.00;-1.00;-1.00;104257;1272;1047674;-73
2023/01/20 02:51:20;;;;;;;104.80;59.90;;;;;;;-128.00;-1.00;-1.00;104090;1273;1061936;-74
2023/01/20 02:53:54;;;;;;;100.50;56.60;;;;;;;-128.00;-1.00;-1.00;104015;1273;1056034;-73
2023/01/20 02:56:25;;;;;;;110.50;59.60;;;;;;;-128.00;-1.00;-1.00;104249;1272;1060408;-73
2023/01/20 02:58:59;;;;;;;118.80;63.60;;;;;;;-128.00;-1.00;-1.00;104200;1272;1046628;-74
2023/01/20 03:01:33;;;;;;;108.10;65.70;;;;;;;-128.00;-1.00;-1.00;104848;1264;1046930;-74
2023/01/20 03:04:02;;;;;;;111.30;63.00;;;;;;;-128.00;-1.00;-1.00;104887;1264;1061565;-74
2023/01/20 03:06:35;;;;;;;111.00;62.00;;;;;;;-128.00;-1.00;-1.00;104876;1264;1055929;-73
2023/01/20 03:09:08;;;;;;;113.20;60.50;;;;;;;-128.00;-1.00;-1.00;104846;1264;1058811;-74
2023/01/20 03:11:42;;;;;;;111.50;59.80;;;;;;;-128.00;-1.00;-1.00;104100;1264;1047455;-73
2023/01/20 03:14:13;;;;;;;98.90;56.90;;;;;;;-128.00;-1.00;-1.00;104381;1252;1046963;-73
2023/01/20 03:16:41;;;;;;;106.50;61.00;;;;;;;-128.00;-1.00;-1.00;105712;1252;1062415;-73
2023/01/20 03:19:09;;;;;;;107.20;63.20;;;;;;;-128.00;-1.00;-1.00;105754;1252;1004158;-73
2023/01/20 03:21:36;;;;;;;111.90;59.50;;;;;;;-128.00;-1.00;-1.00;105704;1251;1059131;-74
2023/01/20 03:24:04;;;;;;;98.70;58.90;;;;;;;-128.00;-1.00;-1.00;105714;1251;1004668;-74
2023/01/20 03:26:30;;;;;;;98.30;58.10;;;;;;;-128.00;-1.00;-1.00;105796;1252;1004943;-73
2023/01/20 03:28:58;;;;;;;97.10;60.30;;;;;;;-128.00;-1.00;-1.00;105694;1253;1004199;-74
2023/01/20 03:31:27;;;;;;;99.80;58.70;;;;;;;-128.00;-1.00;-1.00;105740;1251;1004538;-73
2023/01/20 03:33:57;;;;;;;93.70;57.00;;;;;;;-128.00;-1.00;-1.00;105722;1252;1059587;-74
2023/01/20 03:36:28;;;;;;;91.00;56.20;;;;;;;-128.00;-1.00;-1.00;105634;1252;1046694;-73
2023/01/20 03:38:57;;;;;;;93.70;56.00;;;;;;;-128.00;-1.00;-1.00;105529;1251;1045761;-74
2023/01/20 03:41:50;;;;;;;92.70;57.40;;;;;;;-128.00;-1.00;-1.00;105701;1252;1061825;-73
2023/01/20 03:44:50;;;;;;;89.80;55.00;;;;;;;-128.00;-1.00;-1.00;105680;1252;1055533;-74
2023/01/20 03:47:51;;;;;;;94.00;58.00;;;;;;;-128.00;-1.00;-1.00;105730;1251;1059928;-73
2023/01/20 03:50:32;;;;;;;93.40;55.90;;;;;;;-128.00;-1.00;-1.00;105352;1256;1046557;-73
2023/01/20 03:53:25;;;;;;;93.30;56.80;;;;;;;-128.00;-1.00;-1.00;105366;1256;1046963;-73
2023/01/20 03:56:05;;;;;;;92.20;56.40;;;;;;;-128.00;-1.00;-1.00;105026;1262;1060826;-74
2023/01/20 03:58:53;;;;;;;89.80;55.60;;;;;;;-128.00;-1.00;-1.00;104885;1263;1056022;-74
2023/01/20 04:01:24;;;;;;;88.60;52.80;;;;;;;-128.00;-1.00;-1.00;104874;1262;1060216;-73
2023/01/20 04:03:53;;;;;;;93.90;55.60;;;;;;;-128.00;-1.00;-1.00;105034;1262;1046077;-74
2023/01/20 04:06:23;;;;;;;93.10;55.50;;;;;;;-128.00;-1.00;-1.00;104947;1262;1047295;-74
2023/01/20 04:08:57;;;;;;;92.20;55.00;;;;;;;-128.00;-1.00;-1.00;104832;1262;1061004;-74
2023/01/20 04:11:25;;;;;;;83.90;50.70;;;;;;;-128.00;-1.00;-1.00;105028;1262;1055928;-74
2023/01/20 04:13:53;;;;;;;90.70;53.10;;;;;;;-128.00;-1.00;-1.00;105006;1262;1060008;-75
2023/01/20 04:16:21;;;;;;;92.20;52.70;;;;;;;-128.00;-1.00;-1.00;105021;1261;1005029;-76
2023/01/20 04:18:50;;;;;;;86.80;52.00;;;;;;;-128.00;-1.00;-1.00;105032;1262;1004531;-74
2023/01/20 04:21:33;;;;;;;86.80;50.10;;;;;;;-128.00;-1.00;-1.00;105107;1259;1061972;-75
2023/01/20 04:24:06;;;;;;;84.10;50.60;;;;;;;-128.00;-1.00;-1.00;105231;1258;1055951;-73
2023/01/20 04:26:33;;;;;;;79.90;49.70;;;;;;;-128.00;-1.00;-1.00;105191;1258;1059360;-73
2023/01/20 04:29:07;;;;;;;91.10;54.80;;;;;;;-128.00;-1.00;-1.00;104435;1260;1004488;-73
2023/01/20 04:31:34;;;;;;;96.20;58.80;;;;;;;-128.00;-1.00;-1.00;105054;1259;1048980;-75
2023/01/20 04:34:01;;;;;;;98.90;55.90;;;;;;;-128.00;-1.00;-1.00;105376;1253;1003270;-75
2023/01/20 04:36:28;;;;;;;96.60;54.50;;;;;;;-128.00;-1.00;-1.00;105261;1253;1004354;-74
2023/01/20 04:38:55;;;;;;;90.10;53.40;;;;;;;-128.00;-1.00;-1.00;105714;1253;1005712;-75
2023/01/20 04:41:22;;;;;;;92.50;53.40;;;;;;;-128.00;-1.00;-1.00;105680;1253;1004647;-75
2023/01/20 04:43:48;;;;;;;99.80;54.20;;;;;;;-128.00;-1.00;-1.00;105701;1253;1004282;-74
2023/01/20 04:46:15;;;;;;;90.50;50.40;;;;;;;-128.00;-1.00;-1.00;105716;1253;1004477;-74
2023/01/20 04:48:43;;;;;;;101.70;51.40;;;;;;;-128.00;-1.00;-1.00;105696;1253;1004215;-74
2023/01/20 04:51:10;;;;;;;93.00;51.40;;;;;;;-128.00;-1.00;-1.00;105694;1253;1003229;-74
2023/01/20 04:53:37;;;;;;;105.40;54.40;;;;;;;-128.00;-1.00;-1.00;105685;1253;1004788;-73
2023/01/20 04:56:13;;;;;;;100.50;51.70;;;;;;;-128.00;-1.00;-1.00;105697;1252;1003863;-74
2023/01/20 04:58:41;;;;;;;99.80;52.70;;;;;;;-128.00;-1.00;-1.00;105743;1252;1061576;-75
2023/01/20 05:01:08;;;;;;;103.90;55.30;;;;;;;-128.00;-1.00;-1.00;105716;1252;1003890;-74
2023/01/20 05:03:34;;;;;;;102.00;51.10;;;;;;;-128.00;-1.00;-1.00;105698;1252;1004204;-74
2023/01/20 05:06:01;;;;;;;111.30;50.40;;;;;;;-128.00;-1.00;-1.00;105697;1252;1004243;-74
2023/01/20 05:08:28;;;;;;;94.20;48.30;;;;;;;-128.00;-1.00;-1.00;105733;1252;1004067;-74
2023/01/20 05:10:55;;;;;;;95.20;47.50;;;;;;;-128.00;-1.00;-1.00;105676;1252;1004427;-74
2023/01/20 05:13:21;;;;;;;99.00;48.20;;;;;;;-128.00;-1.00;-1.00;105473;1251;1004891;-73
2023/01/20 05:15:48;;;;;;;90.60;44.80;;;;;;;-128.00;-1.00;-1.00;105749;1251;1004049;-75
2023/01/20 05:18:15;;;;;;;92.20;46.40;;;;;;;-128.00;-1.00;-1.00;105624;1253;1004598;-74
2023/01/20 05:20:44;;;;;;;93.10;48.40;;;;;;;-128.00;-1.00;-1.00;105731;1252;1004135;-74
2023/01/20 05:23:11;;;;;;;85.80;42.80;;;;;;;-128.00;-1.00;-1.00;105279;1253;1061363;-75
2023/01/20 05:25:38;;;;;;;93.40;46.70;;;;;;;-128.00;-1.00;-1.00;105587;1253;1004740;-74
2023/01/20 05:28:05;;;;;;;95.40;46.70;;;;;;;-128.00;-1.00;-1.00;105728;1251;1004281;-74
2023/01/20 05:30:32;;;;;;;93.60;46.60;;;;;;;-128.00;-1.00;-1.00;105777;1252;1003980;-74
2023/01/20 05:32:59;;;;;;;87.50;47.20;;;;;;;-128.00;-1.00;-1.00;105771;1253;1003735;-74
2023/01/20 05:35:25;;;;;;;89.00;45.80;;;;;;;-128.00;-1.00;-1.00;105705;1252;1004726;-74
2023/01/20 05:37:53;;;;;;;90.80;46.50;;;;;;;-128.00;-1.00;-1.00;105784;1252;1004218;-73
2023/01/20 05:40:21;;;;;;;88.10;47.00;;;;;;;-128.00;-1.00;-1.00;105764;1252;1004935;-74
2023/01/20 05:42:47;;;;;;;84.30;43.90;;;;;;;-128.00;-1.00;-1.00;105379;1252;1004639;-74
2023/01/20 05:45:14;;;;;;;84.70;44.80;;;;;;;-128.00;-1.00;-1.00;105769;1252;1004604;-73
2023/01/20 05:47:41;;;;;;;85.00;45.20;;;;;;;-128.00;-1.00;-1.00;105705;1253;1003592;-74
2023/01/20 05:50:08;;;;;;;93.40;50.40;;;;;;;-128.00;-1.00;-1.00;105734;1252;1004275;-74
2023/01/20 05:52:35;;;;;;;86.50;47.30;;;;;;;-128.00;-1.00;-1.00;105415;1252;1004567;-74
2023/01/20 05:55:01;;;;;;;78.80;42.70;;;;;;;-128.00;-1.00;-1.00;105726;1252;1004031;-73
2023/01/20 05:57:28;;;;;;;97.30;53.90;;;;;;;-128.00;-1.00;-1.00;105769;1252;1004228;-74
2023/01/20 05:59:55;;;;;;;82.20;45.80;;;;;;;-128.00;-1.00;-1.00;105773;1251;1004172;-74
2023/01/20 06:02:21;;;;;;;93.00;44.60;;;;;;;-128.00;-1.00;-1.00;105768;1251;1004435;-74
2023/01/20 06:04:48;;;;;;;66.70;37.80;;;;;;;-128.00;-1.00;-1.00;105475;1252;1004258;-74
2023/01/20 06:07:15;;;;;;;70.50;39.60;;;;;;;-128.00;-1.00;-1.00;105761;1252;1004726;-74
2023/01/20 06:09:42;;;;;;;54.90;32.70;;;;;;;-128.00;-1.00;-1.00;105813;1252;1004997;-73
2023/01/20 06:12:08;;;;;;;51.90;30.30;;;;;;;-128.00;-1.00;-1.00;105766;1253;1004428;-73
2023/01/20 06:14:35;;;;;;;53.50;32.30;;;;;;;-128.00;-1.00;-1.00;105745;1253;1003928;-74
2023/01/20 06:17:02;;;;;;;59.30;34.30;;;;;;;-128.00;-1.00;-1.00;105700;1252;1003746;-73
2023/01/20 06:19:28;;;;;;;50.20;31.20;;;;;;;-128.00;-1.00;-1.00;105699;1252;1004118;-74
2023/01/20 06:21:55;;;;;;;55.20;32.10;;;;;;;-128.00;-1.00;-1.00;105724;1253;1005056;-74
2023/01/20 06:24:22;;;;;;;55.50;33.70;;;;;;;-128.00;-1.00;-1.00;105744;1253;1003773;-75
2023/01/20 06:26:50;;;;;;;62.70;34.20;;;;;;;-128.00;-1.00;-1.00;105780;1252;1003827;-74
2023/01/20 06:29:17;;;;;;;59.10;34.30;;;;;;;-128.00;-1.00;-1.00;105691;1252;1003423;-74
2023/01/20 06:31:44;;;;;;;62.50;35.50;;;;;;;-128.00;-1.00;-1.00;105768;1252;1004764;-74
2023/01/20 06:34:11;;;;;;;64.90;37.30;;;;;;;-128.00;-1.00;-1.00;105599;1253;1003545;-75
2023/01/20 06:36:38;;;;;;;66.20;40.30;;;;;;;-128.00;-1.00;-1.00;105638;1253;1003975;-75
2023/01/20 06:39:05;;;;;;;62.70;36.70;;;;;;;-128.00;-1.00;-1.00;105755;1252;1004515;-74
2023/01/20 06:41:32;;;;;;;63.50;38.00;;;;;;;-128.00;-1.00;-1.00;105731;1253;1004115;-74
2023/01/20 06:43:58;;;;;;;63.90;36.20;;;;;;;-128.00;-1.00;-1.00;105574;1252;1005082;-74
2023/01/20 06:46:25;;;;;;;76.80;43.10;;;;;;;-128.00;-1.00;-1.00;105573;1253;1004903;-75
2023/01/20 06:48:59;;;;;;;70.00;39.80;;;;;;;-128.00;-1.00;-1.00;105788;1251;1004148;-74
2023/01/20 06:51:28;;;;;;;72.60;42.90;;;;;;;-128.00;-1.00;-1.00;105777;1252;1057059;-74
2023/01/20 06:53:55;;;;;;;65.60;41.50;;;;;;;-128.00;-1.00;-1.00;105766;1252;1059032;-73
2023/01/20 06:56:23;;;;;;;63.90;39.60;;;;;;;-128.00;-1.00;-1.00;105799;1252;1004353;-74
2023/01/20 06:58:50;;;;;;;66.60;39.10;;;;;;;-128.00;-1.00;-1.00;105759;1251;1004137;-74
2023/01/20 07:01:24;;;;;;;65.90;40.00;;;;;;;-128.00;-1.00;-1.00;105733;1253;1004481;-74
2023/01/20 07:03:51;;;;;;;65.60;39.80;;;;;;;-128.00;-1.00;-1.00;105724;1252;1056676;-75
2023/01/20 07:06:29;;;;;;;64.30;39.80;;;;;;;-128.00;-1.00;-1.00;105759;1253;1004009;-74
2023/01/20 07:08:57;;;;;;;71.90;41.80;;;;;;;-128.00;-1.00;-1.00;105750;1252;1046332;-74
2023/01/20 07:11:23;;;;;;;75.50;45.40;;;;;;;-128.00;-1.00;-1.00;105809;1252;1004465;-75
2023/01/20 07:13:50;;;;;;;72.90;42.90;;;;;;;-128.00;-1.00;-1.00;105802;1252;1004338;-75
2023/01/20 07:16:17;;;;;;;73.70;41.50;;;;;;;-128.00;-1.00;-1.00;105459;1253;1003739;-74
2023/01/20 07:18:47;;;;;;;64.30;38.70;;;;;;;-128.00;-1.00;-1.00;105443;1252;1003780;-75
2023/01/20 07:21:14;;;;;;;75.40;42.20;;;;;;;-128.00;-1.00;-1.00;105757;1252;1046776;-75
2023/01/20 07:23:41;;;;;;;79.90;42.70;;;;;;;-128.00;-1.00;-1.00;105771;1252;1004445;-74
2023/01/20 07:26:11;;;;;;;81.10;43.20;;;;;;;-128.00;-1.00;-1.00;105751;1251;1004130;-74
2023/01/20 07:28:38;;;;;;;70.90;39.50;;;;;;;-128.00;-1.00;-1.00;105744;1251;1056722;-74
2023/01/20 07:31:08;;;;;;;75.90;43.80;;;;;;;-128.00;-1.00;-1.00;105752;1252;1004655;-74
2023/01/20 07:33:35;;;;;;;67.10;39.30;;;;;;;-128.00;-1.00;-1.00;105747;1252;1046271;-74
2023/01/20 07:36:02;;;;;;;69.30;40.40;;;;;;;-128.00;-1.00;-1.00;105560;1253;1004428;-74
2023/01/20 07:38:29;;;;;;;63.70;38.50;;;;;;;-128.00;-1.00;-1.00;105514;1253;1004840;-74
2023/01/20 07:41:01;;;;;;;65.50;38.10;;;;;;;-128.00;-1.00;-1.00;105806;1252;1004825;-75
2023/01/20 07:43:28;;;;;;;62.40;38.50;;;;;;;-128.00;-1.00;-1.00;105783;1252;1060423;-75
2023/01/20 07:45:56;;;;;;;56.20;34.70;;;;;;;-128.00;-1.00;-1.00;105750;1252;1004038;-74
2023/01/20 07:48:24;;;;;;;57.50;35.30;;;;;;;-128.00;-1.00;-1.00;105790;1253;1004100;-75
2023/01/20 07:51:00;;;;;;;57.10;34.90;;;;;;;-128.00;-1.00;-1.00;105727;1253;1004412;-74
2023/01/20 07:53:32;;;;;;;63.60;34.90;;;;;;;-128.00;-1.00;-1.00;105766;1252;1054999;-73
2023/01/20 07:56:04;;;;;;;55.30;33.30;;;;;;;-128.00;-1.00;-1.00;105734;1253;1058526;-75
2023/01/20 07:58:31;;;;;;;51.60;31.80;;;;;;;-128.00;-1.00;-1.00;105758;1251;1045758;-73
2023/01/20 08:01:05;;;;;;;58.10;32.60;;;;;;;-128.00;-1.00;-1.00;105768;1251;1005869;-74
2023/01/20 08:03:31;;;;;;;45.00;29.70;;;;;;;-128.00;-1.00;-1.00;105372;1252;1062119;-74
2023/01/20 08:06:05;;;;;;;47.00;28.40;;;;;;;-128.00;-1.00;-1.00;105741;1252;1004605;-74
2023/01/20 08:08:33;;;;;;;46.20;27.00;;;;;;;-128.00;-1.00;-1.00;105696;1252;1059588;-73
2023/01/20 08:11:00;;;;;;;47.70;29.30;;;;;;;-128.00;-1.00;-1.00;105733;1252;1005040;-74
2023/01/20 08:13:28;;;;;;;53.40;31.30;;;;;;;-128.00;-1.00;-1.00;105745;1252;1004302;-74
2023/01/20 08:15:58;;;;;;;48.20;30.80;;;;;;;-128.00;-1.00;-1.00;105771;1253;1005040;-74
2023/01/20 08:18:24;;;;;;;49.20;29.40;;;;;;;-128.00;-1.00;-1.00;105791;1252;1056391;-74
2023/01/20 08:20:51;;;;;;;47.70;30.90;;;;;;;-128.00;-1.00;-1.00;105752;1252;1004633;-74
2023/01/20 08:23:18;;;;;;;50.50;30.20;;;;;;;-128.00;-1.00;-1.00;105744;1252;1003932;-74
2023/01/20 08:25:44;;;;;;;46.70;28.30;;;;;;;-128.00;-1.00;-1.00;105599;1252;1004853;-74
2023/01/20 08:28:11;;;;;;;46.60;29.70;;;;;;;-128.00;-1.00;-1.00;105746;1253;1004239;-74
2023/01/20 08:30:38;;;;;;;47.70;31.30;;;;;;;-128.00;-1.00;-1.00;105787;1252;1004329;-74
2023/01/20 08:33:05;;;;;;;49.80;31.90;;;;;;;-128.00;-1.00;-1.00;105760;1253;1004684;-74
2023/01/20 08:35:34;;;;;;;47.00;29.80;;;;;;;-128.00;-1.00;-1.00;105739;1253;1003760;-75
2023/01/20 08:38:02;;;;;;;49.30;30.10;;;;;;;-128.00;-1.00;-1.00;105732;1253;1046007;-75
2023/01/20 08:40:28;;;;;;;49.90;31.50;;;;;;;-128.00;-1.00;-1.00;105764;1252;1004579;-74
2023/01/20 08:42:55;;;;;;;46.30;30.90;;;;;;;-128.00;-1.00;-1.00;105789;1252;1004340;-75
2023/01/20 08:45:22;;;;;;;45.70;30.60;;;;;;;-128.00;-1.00;-1.00;105603;1253;1004115;-74
2023/01/20 08:47:49;;;;;;;46.50;30.50;;;;;;;-128.00;-1.00;-1.00;105749;1254;1006465;-74
2023/01/20 08:50:16;;;;;;;48.00;31.30;;;;;;;-128.00;-1.00;-1.00;105812;1252;1004834;-73
2023/01/20 08:52:43;;;;;;;47.30;31.20;;;;;;;-128.00;-1.00;-1.00;105715;1252;1004481;-73
2023/01/20 08:55:10;;;;;;;48.90;31.80;;;;;;;-128.00;-1.00;-1.00;105517;1252;1005047;-75
2023/01/20 08:57:37;;;;;;;49.40;30.80;;;;;;;-128.00;-1.00;-1.00;105706;1252;1004699;-75
2023/01/20 09:00:06;;;;;;;41.20;28.70;;;;;;;-128.00;-1.00;-1.00;105400;1252;1004987;-75
2023/01/20 09:02:33;;;;;;;39.30;27.40;;;;;;;-128.00;-1.00;-1.00;105594;1252;1047295;-75
2023/01/20 09:05:00;;;;;;;46.70;28.80;;;;;;;-128.00;-1.00;-1.00;105775;1253;1004091;-75
2023/01/20 09:07:26;;;;;;;44.70;28.70;;;;;;;-128.00;-1.00;-1.00;105764;1252;1004151;-75
2023/01/20 09:09:54;;;;;;;42.00;27.10;;;;;;;-128.00;-1.00;-1.00;105731;1253;1003682;-74
2023/01/20 09:12:20;;;;;;;45.90;26.90;;;;;;;-128.00;-1.00;-1.00;105755;1253;1004665;-75
2023/01/20 09:14:47;;;;;;;42.30;26.70;;;;;;;-128.00;-1.00;-1.00;105736;1255;1004527;-74
2023/01/20 09:17:14;;;;;;;44.00;27.60;;;;;;;-128.00;-1.00;-1.00;105688;1253;1004666;-75
2023/01/20 09:19:40;;;;;;;47.10;28.50;;;;;;;-128.00;-1.00;-1.00;105463;1252;1004295;-75
2023/01/20 09:22:07;;;;;;;42.60;28.80;;;;;;;-128.00;-1.00;-1.00;105728;1251;1004835;-75
2023/01/20 09:24:33;;;;;;;45.30;29.50;;;;;;;-128.00;-1.00;-1.00;105717;1252;1004424;-76
2023/01/20 09:27:00;;;;;;;49.40;29.00;;;;;;;-128.00;-1.00;-1.00;105762;1253;1004133;-75
2023/01/20 09:29:27;;;;;;;47.30;29.30;;;;;;;-128.00;-1.00;-1.00;105749;1254;1004172;-73
2023/01/20 09:31:57;;;;;;;51.60;31.60;;;;;;;-128.00;-1.00;-1.00;105796;1252;1004240;-74
2023/01/20 09:34:28;;;;;;;49.40;30.10;;;;;;;-128.00;-1.00;-1.00;105715;1253;1059461;-75
2023/01/20 09:43:52;;;;;;;47.50;29.50;;;;;;;-128.00;-1.00;-1.00;105787;1253;1045721;-75
2023/01/20 09:45:30;;;;;;;58.00;33.40;;;;;;;-128.00;-1.00;-1.00;105742;1253;1055678;-73
2023/01/20 09:54:15;;;;;;;58.00;33.80;;;;;;;-128.00;-1.00;-1.00;105775;1252;1047006;-75
2023/01/20 09:56:47;;;;;;;66.30;39.10;;;;;;;-128.00;-1.00;-1.00;105295;1257;1061220;-75
2023/01/20 09:59:47;;;;;;;59.00;32.90;;;;;;;-128.00;-1.00;-1.00;105083;1257;1055726;-74
2023/01/20 10:02:22;;;;;;;58.20;35.60;;;;;;;-128.00;-1.00;-1.00;104877;1263;1058652;-75
2023/01/20 10:04:56;;;;;;;58.40;35.50;;;;;;;-128.00;-1.00;-1.00;104884;1263;1045847;-75
2023/01/20 10:07:32;;;;;;;55.30;32.90;;;;;;;-128.00;-1.00;-1.00;104796;1266;1046833;-75
2023/01/20 10:10:04;;;;;;;59.00;35.90;;;;;;;-128.00;-1.00;-1.00;104893;1265;1061074;-74
2023/01/20 10:12:36;;;;;;;53.70;32.10;;;;;;;-128.00;-1.00;-1.00;104895;1263;1056352;-76
2023/01/20 10:15:08;;;;;;;57.30;35.80;;;;;;;-128.00;-1.00;-1.00;104854;1264;1058716;-75
2023/01/20 10:17:41;;;;;;;55.00;34.20;;;;;;;-128.00;-1.00;-1.00;104862;1265;1044644;-75
2023/01/20 10:20:25;;;;;;;54.70;33.50;;;;;;;-128.00;-1.00;-1.00;104908;1266;1047480;-73
2023/01/20 10:22:57;;;;;;;58.30;34.60;;;;;;;-128.00;-1.00;-1.00;104905;1264;1062052;-74
2023/01/20 10:25:29;;;;;;;60.50;35.10;;;;;;;-128.00;-1.00;-1.00;104905;1265;1055579;-75
2023/01/20 10:28:11;;;;;;;57.50;35.50;;;;;;;-128.00;-1.00;-1.00;104902;1263;1059458;-75
2023/01/20 10:30:37;;;;;;;63.70;35.70;;;;;;;-128.00;-1.00;-1.00;104915;1264;1046564;-75
2023/01/20 10:33:09;;;;;;;57.30;37.00;;;;;;;-128.00;-1.00;-1.00;104912;1264;1004414;-75
2023/01/20 10:35:41;;;;;;;62.80;37.10;;;;;;;-128.00;-1.00;-1.00;105156;1259;1061470;-74
2023/01/20 10:38:20;;;;;;;67.60;40.50;;;;;;;-128.00;-1.00;-1.00;105230;1259;1056175;-74
2023/01/20 10:40:54;;;;;;;68.40;40.50;;;;;;;-128.00;-1.00;-1.00;105713;1254;1058900;-74
2023/01/20 10:43:21;;;;;;;75.20;44.20;;;;;;;-128.00;-1.00;-1.00;105677;1251;1045409;-74
2023/01/20 10:46:00;;;;;;;81.70;43.90;;;;;;;-128.00;-1.00;-1.00;105776;1254;1004257;-75
2023/01/20 10:48:29;;;;;;;72.40;43.70;;;;;;;-128.00;-1.00;-1.00;105718;1252;1062010;-74
2023/01/20 10:51:02;;;;;;;80.80;45.10;;;;;;;-128.00;-1.00;-1.00;105742;1253;1056739;-74
2023/01/20 10:53:45;;;;;;;74.50;44.60;;;;;;;-128.00;-1.00;-1.00;105705;1253;1058493;-73
2023/01/20 10:56:33;;;;;;;75.40;43.20;;;;;;;-128.00;-1.00;-1.00;105738;1253;1045277;-74
2023/01/20 10:59:55;;;;;;;78.70;46.20;;;;;;;-128.00;-1.00;-1.00;105693;1254;1046346;-74
2023/01/20 11:02:25;;;;;;;88.00;49.40;;;;;;;-128.00;-1.00;-1.00;105236;1259;1060872;-78
2023/01/20 11:05:13;;;;;;;81.70;49.40;;;;;;;-128.00;-1.00;-1.00;105088;1259;1056538;-75
2023/01/20 11:07:40;;;;;;;79.00;46.40;;;;;;;-128.00;-1.00;-1.00;105195;1260;1059165;-75
2023/01/20 11:10:19;;;;;;;80.40;47.50;;;;;;;-128.00;-1.00;-1.00;105158;1259;1004350;-74
2023/01/20 11:12:51;;;;;;;87.80;52.50;;;;;;;-128.00;-1.00;-1.00;105145;1260;1047827;-74
2023/01/20 11:15:22;;;;;;;85.10;48.80;;;;;;;-128.00;-1.00;-1.00;105177;1260;1060424;-74
2023/01/20 11:18:13;;;;;;;96.00;55.00;;;;;;;-128.00;-1.00;-1.00;105217;1258;1056259;-74
2023/01/20 11:20:45;;;;;;;85.80;51.50;;;;;;;-128.00;-1.00;-1.00;105132;1258;1060329;-74
2023/01/20 11:23:31;;;;;;;94.70;56.10;;;;;;;-128.00;-1.00;-1.00;105062;1259;1046477;-74
2023/01/20 11:26:01;;;;;;;85.10;50.50;;;;;;;-128.00;-1.00;-1.00;105218;1260;1047007;-74
2023/01/20 11:28:35;;;;;;;82.00;50.70;;;;;;;-128.00;-1.00;-1.00;105180;1259;1061153;-74